Time;durP1;ratioP1;P1;durP2;ratioP2;P2;SDS_P1;SDS_P2;PMS_P1;PMS_P2;Temp;Humidity;BMP_temperature;BMP_pressure;BME280_temperature;BME280_humidity;BME280_pressure;Samples;Min_cycle;Max_cycle;Signal;HPM_P1;HPM_P2
2022/10/25 00:00:44;;;;;;;;;1.00;1.00;;;;;16.42;68.56;100819.16;4858392;29;45769;-80
2022/10/25 00:03:11;;;;;;;;;0.50;0.00;;;;;16.40;68.77;100821.97;4876750;29;45904;-81
2022/10/25 00:05:37;;;;;;;;;3.00;1.25;;;;;16.40;68.91;100824.63;4883096;28;45611;-80
2022/10/25 00:08:03;;;;;;;;;1.50;0.50;;;;;16.36;69.13;100833.78;4935752;28;46217;-81
2022/10/25 00:10:29;;;;;;;;;1.50;0.75;;;;;16.36;69.09;100834.63;4935357;28;45661;-80
2022/10/25 00:12:54;;;;;;;;;1.00;1.00;;;;;16.28;68.89;100815.16;4936093;28;45601;-80
2022/10/25 00:15:20;;;;;;;;;2.75;1.00;;;;;16.34;68.69;100826.00;4938976;28;45556;-82
2022/10/25 00:17:46;;;;;;;;;0.00;0.00;;;;;16.24;69.37;100806.69;4938609;28;46088;-81
2022/10/25 00:20:12;;;;;;;;;0.75;0.75;;;;;16.33;69.10;100823.50;4939778;28;45706;-81
2022/10/25 00:22:38;;;;;;;;;2.25;0.75;;;;;16.32;69.37;100825.31;4944379;28;45648;-80
2022/10/25 00:25:06;;;;;;;;;1.00;1.00;;;;;16.32;69.05;100819.19;4941115;28;45919;-80
2022/10/25 00:27:31;;;;;;;;;0.75;0.50;;;;;16.30;69.16;100818.50;4943073;28;45887;-81
2022/10/25 00:29:56;;;;;;;;;0.00;0.00;;;;;16.11;69.35;100790.25;4944897;28;45724;-80
2022/10/25 00:32:22;;;;;;;;;3.00;1.00;;;;;16.09;69.36;100786.06;4945288;28;45628;-80
2022/10/25 00:34:47;;;;;;;;;2.00;1.00;;;;;16.25;69.62;100816.25;4952215;28;45577;-80
2022/10/25 00:37:13;;;;;;;;;3.25;1.00;;;;;16.22;69.45;100808.63;4956114;28;45490;-79
2022/10/25 00:39:38;;;;;;;;;1.00;1.00;;;;;16.19;69.55;100813.38;4961630;28;45634;-81
2022/10/25 00:42:03;;;;;;;;;1.00;1.00;;;;;16.21;69.80;100821.97;4968508;28;45450;-80
2022/10/25 00:44:35;;;;;;;;;2.00;1.00;;;;;16.22;69.73;100813.06;4972491;28;45439;-81
2022/10/25 00:47:09;;;;;;;;;2.00;1.00;;;;;16.21;69.11;100816.69;4958178;28;45902;-81
2022/10/25 00:49:34;;;;;;;;;1.00;0.00;;;;;16.21;69.75;100816.69;4958313;28;45726;-81
2022/10/25 00:52:03;;;;;;;;;0.50;0.50;;;;;16.15;69.44;100819.88;4958353;28;45538;-80
2022/10/25 00:54:35;;;;;;;;;3.50;2.00;;;;;16.16;69.60;100826.84;4959726;28;46316;-80
2022/10/25 00:57:13;;;;;;;;;1.50;0.75;;;;;16.16;69.91;100830.31;4958885;28;45942;-79
2022/10/25 00:59:39;;;;;;;;;1.25;1.00;;;;;16.15;69.74;100825.16;4957842;28;45702;-80
2022/10/25 01:02:04;;;;;;;;;3.00;1.00;;;;;16.17;70.16;100834.66;4957524;28;45460;-80
2022/10/25 01:04:31;;;;;;;;;2.75;1.00;;;;;16.06;69.94;100816.28;4959573;28;45486;-80
2022/10/25 01:06:59;;;;;;;;;3.25;1.00;;;;;16.15;70.14;100835.75;4957493;28;45537;-80
2022/10/25 01:09:29;;;;;;;;;1.00;0.25;;;;;16.12;69.97;100831.59;4960471;28;45526;-80
2022/10/25 01:11:54;;;;;;;;;2.00;1.00;;;;;16.11;70.03;100839.66;4960477;28;45615;-80
2022/10/25 01:14:20;;;;;;;;;0.75;0.00;;;;;16.00;69.99;100813.34;4959001;28;46458;-79
2022/10/25 01:16:52;;;;;;;;;1.00;1.00;;;;;16.08;70.14;100835.50;4956114;28;47199;-79
2022/10/25 01:19:43;;;;;;;;;2.50;1.00;;;;;16.10;69.93;100830.03;4956720;28;45517;-80
2022/10/25 01:22:25;;;;;;;;;2.25;1.50;;;;;16.08;70.34;100835.50;4956837;28;45563;-81
2022/10/25 01:24:50;;;;;;;;;1.75;0.25;;;;;16.07;70.44;100830.34;4955586;28;46885;-81
2022/10/25 01:27:31;;;;;;;;;1.00;1.00;;;;;16.04;70.31;100828.78;4956647;28;45707;-80
2022/10/25 01:30:03;;;;;;;;;2.50;1.50;;;;;16.04;70.32;100825.31;4956542;28;45625;-79
2022/10/25 01:33:14;;;;;;;;;2.00;0.75;;;;;15.98;70.64;100824.06;4956464;28;45668;-80
2022/10/25 01:36:00;;;;;;;;;4.00;1.00;;;;;16.05;70.40;100832.25;4956329;28;45655;-82
2022/10/25 01:38:32;;;;;;;;;1.00;1.00;;;;;16.02;70.64;100817.53;4955894;28;46157;-81
2022/10/25 01:41:38;;;;;;;;;2.50;1.00;;;;;16.02;70.41;100824.63;4956274;28;45546;-80
2022/10/25 01:44:23;;;;;;;;;2.00;1.00;;;;;16.01;70.48;100813.22;4877836;29;45498;-80
2022/10/25 01:47:13;;;;;;;;;1.25;1.00;;;;;16.01;70.54;100830.88;4877380;28;46372;-80
2022/10/25 01:52:59;;;;;;;;;0.75;0.00;;;;;15.98;70.36;100824.06;4877257;29;45639;-81
2022/10/25 01:55:35;;;;;;;;;1.75;1.25;;;;;15.92;70.42;100814.88;4877447;29;45595;-80
2022/10/25 01:58:19;;;;;;;;;4.00;1.00;;;;;15.99;70.50;100828.38;4877012;29;47968;-80
2022/10/25 02:01:01;;;;;;;;;1.25;1.00;;;;;15.98;70.47;100834.63;4877022;29;47437;-79
2022/10/25 02:03:37;;;;;;;;;0.00;0.00;;;;;15.98;70.65;100831.19;4877231;29;45862;-80
2022/10/25 02:09:35;;;;;;;;;1.25;1.00;;;;;15.93;70.17;100819.19;4877018;29;46105;-79
2022/10/25 02:12:03;;;;;;;;;0.75;0.00;;;;;15.98;70.09;100820.59;4877038;29;45906;-80
2022/10/25 02:14:37;;;;;;;;;0.00;0.00;;;;;15.97;70.16;100821.56;4877232;29;45763;-80
2022/10/25 02:17:14;;;;;;;;;2.00;1.00;;;;;15.97;70.17;100824.22;4877271;29;45737;-79
2022/10/25 02:23:36;;;;;;;;;0.00;0.00;;;;;15.99;70.15;100831.00;4955379;28;45899;-80
2022/10/25 02:26:05;;;;;;;;;1.50;0.75;;;;;15.85;70.31;100819.06;4955375;28;45751;-80
2022/10/25 02:28:33;;;;;;;;;1.25;0.25;;;;;15.98;70.18;100831.97;4955822;28;45634;-80
2022/10/25 02:30:59;;;;;;;;;2.75;0.75;;;;;15.99;69.93;100836.28;4955454;28;45699;-80
2022/10/25 02:33:25;;;;;;;;;1.50;1.00;;;;;15.87;70.08;100816.28;4955387;28;45489;-80
2022/10/25 02:39:12;;;;;;;;;1.25;0.00;;;;;16.00;70.41;100842.41;4953559;28;45881;-80
2022/10/25 02:41:37;;;;;;;;;1.25;1.00;;;;;16.03;69.85;100836.88;4955572;28;45735;-81
2022/10/25 02:44:03;;;;;;;;;1.00;0.00;;;;;16.06;70.05;100839.22;4955412;28;45686;-80
2022/10/25 02:46:28;;;;;;;;;3.50;2.00;;;;;16.03;70.06;100839.53;4955496;28;45673;-81
2022/10/25 02:48:54;;;;;;;;;2.50;1.00;;;;;16.02;69.95;100840.50;4955781;28;45746;-80
2022/10/25 02:54:41;;;;;;;;;1.25;1.00;;;;;16.15;69.96;100843.69;4955059;28;45926;-80
2022/10/25 02:57:06;;;;;;;;;1.25;0.00;;;;;16.09;69.96;100829.19;4955487;28;45712;-80
2022/10/25 02:59:31;;;;;;;;;0.00;0.00;;;;;16.19;69.47;100840.63;4955156;28;45514;-81
2022/10/25 03:01:57;;;;;;;;;3.00;1.00;;;;;16.19;69.84;100827.41;4955143;28;45590;-81
2022/10/25 03:04:22;;;;;;;;;1.00;1.00;;;;;16.25;69.70;100834.75;4955116;28;45892;-80
2022/10/25 03:10:09;;;;;;;;;2.00;1.00;;;;;16.30;69.56;100840.47;4956205;28;45566;-81
2022/10/25 03:12:35;;;;;;;;;0.75;0.50;;;;;16.31;69.34;100839.50;4955565;28;46297;-80
2022/10/25 03:15:00;;;;;;;;;1.75;1.00;;;;;16.29;69.33;100833.53;4955612;28;46531;-80
2022/10/25 03:17:25;;;;;;;;;1.00;1.00;;;;;16.33;69.70;100844.66;4955457;28;45684;-81
2022/10/25 03:19:51;;;;;;;;;2.75;1.00;;;;;16.38;69.24;100842.44;4955385;28;45815;-79
2022/10/25 03:25:38;;;;;;;;;0.50;0.50;;;;;16.40;69.16;100839.66;4954613;28;45956;-81
2022/10/25 03:28:03;;;;;;;;;0.00;0.00;;;;;16.43;68.88;100839.34;4954773;28;45534;-80
2022/10/25 03:30:29;;;;;;;;;1.00;0.25;;;;;16.46;68.76;100839.09;4954851;28;45911;-80
2022/10/25 03:32:55;;;;;;;;;2.00;1.00;;;;;16.50;68.81;100851.88;4954691;28;45710;-79
2022/10/25 03:41:41;;;;;;;;;1.50;1.00;;;;;16.51;69.06;100860.66;4953805;28;45818;-80
2022/10/25 03:44:07;;;;;;;;;2.00;1.00;;;;;16.52;69.13;100854.41;4953531;28;46555;-79
2022/10/25 03:46:32;;;;;;;;;2.00;1.75;;;;;16.57;69.02;100873.31;4954291;28;46199;-79
2022/10/25 03:48:58;;;;;;;;;0.00;0.00;;;;;16.57;68.87;100863.56;4956164;28;45454;-80
2022/10/25 03:51:23;;;;;;;;;0.25;0.25;;;;;16.54;68.88;100855.06;4958332;28;45535;-79
2022/10/25 03:53:49;;;;;;;;;1.00;1.00;;;;;16.60;68.24;100867.78;4957862;28;45586;-80
2022/10/25 03:56:15;;;;;;;;;2.50;1.00;;;;;16.61;68.76;100870.28;4956337;28;46661;-80
2022/10/25 03:58:40;;;;;;;;;3.50;1.00;;;;;16.62;68.47;100864.03;4957902;28;45613;-80
2022/10/25 04:01:08;;;;;;;;;1.00;1.00;;;;;16.63;68.78;100862.19;4958134;28;45690;-80
2022/10/25 04:03:35;;;;;;;;;2.50;1.00;;;;;16.64;68.63;100871.78;4957886;28;45926;-79
2022/10/25 04:06:00;;;;;;;;;1.50;1.50;;;;;16.64;68.45;100870.00;4957781;28;46124;-82
2022/10/25 04:08:26;;;;;;;;;1.00;1.00;;;;;16.65;68.42;100868.19;4957891;28;45549;-80
2022/10/25 04:10:51;;;;;;;;;2.00;1.00;;;;;16.66;68.54;100875.97;4957884;28;45690;-79
2022/10/25 04:13:16;;;;;;;;;2.00;1.00;;;;;16.67;68.56;100869.72;4957486;28;45532;-80
2022/10/25 04:15:42;;;;;;;;;2.25;1.25;;;;;16.66;68.03;100862.75;4957602;28;46022;-78
2022/10/25 04:18:07;;;;;;;;;1.00;1.00;;;;;16.66;68.64;100868.03;4955382;28;45937;-80
2022/10/25 04:20:32;;;;;;;;;2.00;2.00;;;;;16.69;68.21;100867.75;4957968;28;45599;-80
2022/10/25 04:26:21;;;;;;;;;2.50;1.25;;;;;16.64;68.19;100862.06;4957120;28;45733;-79
2022/10/25 04:28:51;;;;;;;;;2.50;1.00;;;;;16.68;68.18;100870.56;4957655;28;45677;-80
2022/10/25 04:31:17;;;;;;;;;4.00;1.00;;;;;16.64;68.51;100867.34;4957669;28;45605;-79
2022/10/25 04:33:43;;;;;;;;;2.50;2.00;;;;;16.67;68.67;100876.81;4957262;28;45633;-80
2022/10/25 04:36:08;;;;;;;;;5.00;2.50;;;;;16.65;68.50;100871.66;4957162;28;45773;-80
2022/10/25 04:38:34;;;;;;;;;3.75;2.75;;;;;16.64;68.67;100875.28;4957585;28;45630;-80
2022/10/25 04:40:59;;;;;;;;;2.75;1.00;;;;;16.62;68.26;100865.84;4957076;28;45684;-79
2022/10/25 04:43:26;;;;;;;;;2.50;1.75;;;;;16.65;68.21;100870.81;4957157;28;45550;-79
2022/10/25 04:45:52;;;;;;;;;2.75;2.00;;;;;16.65;68.71;100876.13;4957083;28;45879;-80
2022/10/25 04:48:18;;;;;;;;;3.00;2.00;;;;;16.64;68.16;100875.28;4957289;28;45475;-80
2022/10/25 04:50:44;;;;;;;;;2.00;1.75;;;;;16.66;68.64;100875.16;4957641;28;45534;-79
2022/10/25 04:56:31;;;;;;;;;3.00;2.00;;;;;16.54;68.56;100857.72;4956977;28;45634;-79
2022/10/25 04:58:57;;;;;;;;;2.25;2.25;;;;;16.62;68.26;100876.41;4939471;28;45665;-80
2022/10/25 05:01:23;;;;;;;;;2.00;2.00;;;;;16.62;68.65;100885.19;4955750;28;45601;-80
2022/10/25 05:03:49;;;;;;;;;3.00;2.50;;;;;16.63;68.70;100880.69;4956963;28;46737;-80
2022/10/25 05:06:18;;;;;;;;;3.50;2.25;;;;;16.62;68.73;100876.41;4956838;28;45941;-80
2022/10/25 05:08:46;;;;;;;;;4.00;3.50;;;;;16.57;68.63;100868.84;4956705;28;45682;-80
2022/10/25 05:11:13;;;;;;;;;5.00;2.25;;;;;16.59;68.75;100874.88;4955791;28;45873;-79
2022/10/25 05:13:39;;;;;;;;;4.00;3.00;;;;;16.59;68.54;100880.16;4956550;28;46655;-80
2022/10/25 05:16:05;;;;;;;;;3.25;2.25;;;;;16.56;68.79;100875.13;4956842;28;45633;-79
2022/10/25 05:18:33;;;;;;;;;4.00;3.00;;;;;16.58;68.68;100877.63;4956784;28;45701;-80
2022/10/25 05:21:00;;;;;;;;;3.50;1.50;;;;;16.57;68.66;100884.72;4956894;28;45898;-79
2022/10/25 05:26:47;;;;;;;;;2.00;2.00;;;;;16.54;68.99;100885.00;4956330;28;45737;-79
2022/10/25 05:29:13;;;;;;;;;2.25;2.00;;;;;16.41;69.18;100871.22;4956592;28;45697;-80
2022/10/25 05:31:40;;;;;;;;;3.00;3.00;;;;;16.52;69.40;100884.31;4939091;28;45697;-80
2022/10/25 05:34:05;;;;;;;;;3.25;3.00;;;;;16.50;69.12;100888.06;4956357;28;45676;-79
2022/10/25 05:36:32;;;;;;;;;2.50;1.75;;;;;16.50;69.32;100893.38;4956006;28;45692;-77
2022/10/25 05:42:22;;;;;;;;;4.00;2.50;;;;;16.49;69.12;100887.25;4954769;28;45632;-77
2022/10/25 05:44:48;;;;;;;;;2.00;2.00;;;;;16.49;69.45;100897.81;4956460;28;45507;-79
2022/10/25 05:47:13;;;;;;;;;5.00;3.00;;;;;16.50;69.28;100888.06;4956355;28;46543;-77
2022/10/25 05:49:41;;;;;;;;;3.50;1.50;;;;;16.48;69.82;100884.72;4956538;28;45649;-76
2022/10/25 05:52:06;;;;;;;;;3.75;3.00;;;;;16.51;69.28;100890.59;4956009;28;45720;-75
2022/10/25 05:54:32;;;;;;;;;5.25;2.50;;;;;16.52;69.39;100897.53;4956114;28;45721;-78
2022/10/25 05:56:57;;;;;;;;;3.50;3.00;;;;;16.45;70.04;100882.38;4956186;28;45852;-77
2022/10/25 05:59:22;;;;;;;;;5.00;3.00;;;;;16.48;69.63;100892.66;4970918;28;46280;-78
2022/10/25 06:01:48;;;;;;;;;3.25;3.00;;;;;16.54;69.77;100892.94;4956071;28;45959;-76
2022/10/25 06:04:15;;;;;;;;;4.50;3.75;;;;;16.53;69.83;100896.56;4957005;28;45553;-80
2022/10/25 06:06:42;;;;;;;;;5.50;3.75;;;;;16.52;69.57;100894.88;4957266;28;45918;-82
2022/10/25 06:12:29;;;;;;;;;5.00;2.75;;;;;16.57;69.58;100894.50;4955928;28;45759;-78
2022/10/25 06:14:54;;;;;;;;;4.50;3.00;;;;;16.52;69.84;100883.50;4956742;28;45607;-78
2022/10/25 06:17:20;;;;;;;;;5.50;4.75;;;;;16.56;69.71;100890.16;4956915;28;45636;-82
2022/10/25 06:19:45;;;;;;;;;4.00;3.00;;;;;16.58;69.45;100889.03;4958396;28;45784;-80
2022/10/25 06:22:10;;;;;;;;;3.50;3.00;;;;;16.57;69.61;100883.91;4957214;28;45677;-84
2022/10/25 06:24:36;;;;;;;;;3.00;2.50;;;;;16.58;69.70;100890.84;4958775;28;45743;-83
2022/10/25 06:27:01;;;;;;;;;4.25;4.00;;;;;16.61;69.78;100896.75;4957698;28;45542;-83
2022/10/25 06:29:26;;;;;;;;;5.50;3.50;;;;;16.63;69.87;100907.16;4961520;28;45528;-84
2022/10/25 06:31:54;;;;;;;;;4.00;3.00;;;;;16.56;69.94;100895.47;4958700;28;45605;-78
2022/10/25 06:34:20;;;;;;;;;4.75;4.00;;;;;16.51;69.37;100895.03;4956968;28;46378;-81
2022/10/25 06:36:45;;;;;;;;;3.00;3.00;;;;;16.65;69.45;100907.88;4957550;28;46424;-84
2022/10/25 06:42:38;;;;;;;;;2.50;2.50;;;;;16.43;69.61;100874.56;4956500;28;45629;-82
2022/10/25 06:45:04;;;;;;;;;12.50;7.25;;;;;16.46;69.38;100890.19;4958238;28;45744;-84
2022/10/25 06:47:30;;;;;;;;;4.00;2.50;;;;;16.62;69.70;100905.50;4961394;28;45879;-84
2022/10/25 06:49:55;;;;;;;;;4.00;2.50;;;;;16.69;69.62;100922.47;4959465;28;45645;-82
2022/10/25 06:52:21;;;;;;;;;4.75;3.00;;;;;16.65;69.45;100911.34;4958583;28;45684;-81
2022/10/25 06:58:07;;;;;;;;;4.25;2.50;;;;;16.72;69.38;100931.00;4957617;28;45651;-84
2022/10/25 07:00:33;;;;;;;;;2.00;2.00;;;;;16.71;69.41;100924.03;4959213;28;45643;-82
2022/10/25 07:02:59;;;;;;;;;2.00;2.00;;;;;16.74;69.17;100922.88;4960995;28;45578;-86
2022/10/25 07:05:25;;;;;;;;;1.00;1.00;;;;;16.74;69.09;100931.66;4956605;28;45644;-84
2022/10/25 07:07:51;;;;;;;;;2.75;2.00;;;;;16.75;69.52;100930.69;4972238;28;46169;-79
2022/10/25 07:10:17;;;;;;;;;2.50;2.50;;;;;16.76;69.38;100923.59;4960078;28;45619;-80
2022/10/25 07:12:44;;;;;;;;;2.50;2.00;;;;;16.76;69.02;100924.44;4957404;28;45521;-81
2022/10/25 07:15:09;;;;;;;;;2.00;2.00;;;;;16.74;69.13;100923.72;4958054;28;46733;-80
2022/10/25 07:17:35;;;;;;;;;3.25;2.50;;;;;16.73;69.14;100929.19;4962998;28;46208;-81
2022/10/25 07:20:00;;;;;;;;;2.50;2.25;;;;;16.77;69.44;100933.22;4955830;28;45549;-78
2022/10/25 07:22:26;;;;;;;;;3.50;2.50;;;;;16.74;69.01;100930.81;4956158;28;45503;-82
2022/10/25 07:28:13;;;;;;;;;2.75;2.75;;;;;16.70;68.80;100932.09;4954765;28;45964;-80
2022/10/25 07:30:43;;;;;;;;;3.00;2.00;;;;;16.77;69.18;100936.69;4954723;28;45632;-78
2022/10/25 07:33:09;;;;;;;;;0.75;0.75;;;;;16.75;68.99;100943.09;4955150;28;45759;-80
2022/10/25 07:35:34;;;;;;;;;4.25;3.25;;;;;16.78;69.32;100941.00;4956729;28;46296;-81
2022/10/25 07:37:59;;;;;;;;;2.75;2.00;;;;;16.76;68.88;100942.94;4955889;28;46537;-83
2022/10/25 07:40:25;;;;;;;;;5.00;3.00;;;;;16.81;69.02;100945.16;4937843;28;45690;-80
2022/10/25 07:42:50;;;;;;;;;3.25;2.50;;;;;16.83;69.43;100950.34;4955013;28;45606;-81
2022/10/25 07:45:16;;;;;;;;;2.25;2.00;;;;;16.82;68.96;100946.00;4954990;28;46495;-82
2022/10/25 07:47:41;;;;;;;;;4.50;3.75;;;;;16.83;68.97;100955.63;4937363;28;46712;-82
2022/10/25 07:50:07;;;;;;;;;4.75;4.75;;;;;16.81;69.15;100944.34;4954756;28;45612;-83
2022/10/25 07:52:32;;;;;;;;;5.00;3.25;;;;;16.86;69.10;100955.34;4954686;28;45514;-83
2022/10/25 07:58:19;;;;;;;;;3.00;3.00;;;;;16.88;69.08;100954.22;4959291;28;46156;-76
2022/10/25 08:00:45;;;;;;;;;3.00;3.00;;;;;16.90;69.07;100957.56;4960142;28;45676;-81
2022/10/25 08:03:12;;;;;;;;;4.25;4.00;;;;;16.93;68.63;100954.63;4958427;28;45649;-80
2022/10/25 08:05:37;;;;;;;;;5.25;3.50;;;;;16.94;69.13;100955.47;4955250;28;45968;-90
2022/10/25 08:08:04;;;;;;;;;4.00;2.50;;;;;16.96;68.67;100957.00;4956015;28;45644;-85
2022/10/25 08:13:51;;;;;;;;;4.00;3.00;;;;;17.02;68.95;100953.78;4955573;28;45677;-85
2022/10/25 08:16:17;;;;;;;;;5.00;3.00;;;;;16.87;68.75;100922.59;4957398;28;46279;-85
2022/10/25 08:18:42;;;;;;;;;5.00;4.00;;;;;17.06;68.36;100949.88;4957669;28;46008;-83
2022/10/25 08:21:08;;;;;;;;;4.75;2.75;;;;;17.08;68.70;100942.63;4956446;28;45613;-83
2022/10/25 08:23:33;;;;;;;;;3.75;2.50;;;;;17.02;68.62;100926.47;4954362;28;45973;-83
2022/10/25 08:26:00;;;;;;;;;3.00;3.00;;;;;17.12;68.70;100937.88;4955128;28;46191;-82
2022/10/25 08:28:25;;;;;;;;;2.50;2.00;;;;;17.12;68.08;100936.06;4954857;28;46001;-83
2022/10/25 08:30:53;;;;;;;;;3.00;3.00;;;;;17.11;68.42;100946.81;4954987;28;45459;-83
2022/10/25 08:33:18;;;;;;;;;4.00;2.50;;;;;17.12;68.14;100946.66;4955429;28;45631;-82
2022/10/25 08:35:44;;;;;;;;;3.50;2.00;;;;;17.10;67.92;100942.50;4956515;28;45668;-81
2022/10/25 08:38:09;;;;;;;;;2.25;2.25;;;;;17.12;67.93;100944.00;4958079;28;46045;-81
2022/10/25 08:43:56;;;;;;;;;3.75;2.75;;;;;17.14;68.03;100935.94;4956661;28;46856;-78
2022/10/25 08:46:46;;;;;;;;;3.00;2.00;;;;;17.10;67.71;100935.38;4940323;28;45686;-79
2022/10/25 08:49:34;;;;;;;;;3.00;2.00;;;;;17.13;67.91;100939.53;4957982;28;45633;-76
2022/10/25 08:52:00;;;;;;;;;3.00;1.00;;;;;17.08;66.67;100937.34;4957320;28;45659;-79
2022/10/25 08:54:28;;;;;;;;;2.50;1.00;;;;;17.03;67.02;100930.78;4958748;28;45858;-84
2022/10/25 08:57:23;;;;;;;;;2.25;2.00;;;;;17.05;66.02;100926.19;4959833;28;46662;-83
2022/10/25 09:00:06;;;;;;;;;1.00;1.00;;;;;17.04;66.69;100935.13;4950169;28;47207;-81
2022/10/25 09:02:37;;;;;;;;;1.00;1.00;;;;;17.05;66.26;100942.94;4941058;28;45806;-76
2022/10/25 09:05:08;;;;;;;;;1.00;1.00;;;;;17.00;66.22;100934.56;4957574;28;45538;-84
2022/10/25 09:07:40;;;;;;;;;0.50;0.50;;;;;17.08;66.35;100936.50;4957468;28;45558;-75
2022/10/25 09:10:50;;;;;;;;;1.00;0.75;;;;;17.11;65.87;100941.53;4956812;28;46106;-78
2022/10/25 09:13:34;;;;;;;;;2.00;1.00;;;;;17.13;65.23;100948.31;4949062;28;45738;-82
2022/10/25 09:16:16;;;;;;;;;1.00;0.00;;;;;17.16;65.24;100934.81;4957127;28;45585;-80
2022/10/25 09:18:49;;;;;;;;;0.00;0.00;;;;;17.16;65.24;100939.28;4957957;28;46648;-79
2022/10/25 09:21:35;;;;;;;;;1.00;0.50;;;;;17.14;65.28;100928.81;4956848;28;45775;-75
2022/10/25 09:27:47;;;;;;;;;2.00;1.00;;;;;17.13;65.20;100916.56;4956518;28;45484;-76
2022/10/25 09:30:12;;;;;;;;;3.00;0.25;;;;;17.24;64.61;100926.13;4957563;28;45767;-82
2022/10/25 09:32:44;;;;;;;;;1.00;1.00;;;;;17.27;65.15;100928.50;4955820;28;45938;-82
2022/10/25 09:35:24;;;;;;;;;2.00;1.00;;;;;17.24;65.11;100926.13;4957151;28;45634;-81
2022/10/25 09:37:58;;;;;;;;;1.50;0.50;;;;;17.34;64.51;100942.00;4957299;28;45739;-78
2022/10/25 09:43:58;;;;;;;;;2.50;1.00;;;;;17.33;64.44;100919.97;4956074;28;46006;-81
2022/10/25 09:46:33;;;;;;;;;1.50;0.75;;;;;17.36;64.36;100918.84;4955748;28;45684;-80
2022/10/25 09:49:23;;;;;;;;;0.50;0.00;;;;;17.39;64.46;100923.84;4956891;28;45782;-82
2022/10/25 09:52:04;;;;;;;;;0.75;0.75;;;;;17.40;64.32;100921.06;4956353;28;45548;-83
2022/10/25 09:55:04;;;;;;;;;1.00;0.00;;;;;17.45;63.94;100929.41;4956091;28;46031;-80
2022/10/25 09:57:29;;;;;;;;;1.25;1.00;;;;;17.49;63.89;100935.28;4877360;29;45728;-79
2022/10/25 09:59:55;;;;;;;;;0.00;0.00;;;;;17.37;63.70;100905.47;4877716;29;45610;-81
2022/10/25 10:02:24;;;;;;;;;0.00;0.00;;;;;17.53;63.72;100918.94;4877896;29;46307;-79
2022/10/25 10:04:50;;;;;;;;;1.00;0.00;;;;;17.58;64.17;100924.63;4878001;29;46207;-81
2022/10/25 10:07:35;;;;;;;;;0.00;0.00;;;;;17.61;64.00;100919.06;4877401;29;45818;-79
2022/10/25 10:10:06;;;;;;;;;1.00;1.00;;;;;17.63;63.92;100910.13;4877541;29;45658;-79
2022/10/25 10:12:42;;;;;;;;;0.00;0.00;;;;;17.63;63.67;100910.97;4877231;29;46383;-81
2022/10/25 10:15:18;;;;;;;;;0.00;0.00;;;;;17.69;63.11;100914.84;4878155;29;46490;-76
2022/10/25 10:17:44;;;;;;;;;0.00;0.00;;;;;17.71;63.13;100919.00;4877840;29;45755;-75
2022/10/25 10:20:13;;;;;;;;;2.00;1.00;;;;;17.74;63.57;100910.78;4877637;29;45638;-80
2022/10/25 10:22:52;;;;;;;;;0.25;0.25;;;;;17.78;63.14;100906.84;4876786;29;45601;-76
2022/10/25 10:25:23;;;;;;;;;2.00;1.00;;;;;17.79;63.54;100907.66;4876596;29;46889;-79
2022/10/25 10:27:51;;;;;;;;;0.25;0.00;;;;;17.82;63.48;100902.06;4877441;29;45768;-79
2022/10/25 10:30:29;;;;;;;;;0.75;0.75;;;;;17.71;63.48;100881.91;4877854;29;45666;-78
2022/10/25 10:32:59;;;;;;;;;1.75;1.00;;;;;17.87;63.16;100908.59;4877927;29;45865;-77
2022/10/25 10:35:28;;;;;;;;;2.50;1.00;;;;;17.91;63.46;100907.31;4956246;28;46180;-80
2022/10/25 10:38:22;;;;;;;;;2.00;1.00;;;;;17.98;63.15;100920.81;4956789;28;45605;-79
2022/10/25 10:41:09;;;;;;;;;3.00;1.50;;;;;18.01;63.67;100918.72;4937808;28;45762;-77
2022/10/25 10:43:34;;;;;;;;;0.75;0.00;;;;;17.97;63.20;100887.34;4944661;28;45759;-77
2022/10/25 10:46:07;;;;;;;;;1.25;1.00;;;;;18.10;63.16;100902.88;4955657;28;46177;-79
2022/10/25 10:48:37;;;;;;;;;1.00;1.00;;;;;18.12;63.67;100912.34;4955552;28;45679;-80
2022/10/25 10:51:03;;;;;;;;;1.00;1.00;;;;;18.16;63.61;100907.56;4955523;28;45849;-76
2022/10/25 10:53:31;;;;;;;;;1.00;1.00;;;;;18.16;63.67;100900.44;4955114;28;46480;-75
2022/10/25 10:56:03;;;;;;;;;2.75;2.50;;;;;18.20;63.35;100890.38;4955145;28;47137;-80
2022/10/25 10:58:34;;;;;;;;;4.00;3.00;;;;;18.26;63.33;100889.75;4953900;28;45722;-77
2022/10/25 11:01:12;;;;;;;;;2.75;2.00;;;;;18.31;63.54;100890.13;4955354;28;45603;-84
2022/10/25 11:03:40;;;;;;;;;2.00;2.00;;;;;18.33;63.57;100882.88;4954643;28;47532;-82
2022/10/25 11:06:08;;;;;;;;;2.00;2.00;;;;;18.37;63.60;100881.56;4955578;28;45833;-77
2022/10/25 11:08:34;;;;;;;;;3.00;2.25;;;;;18.28;63.74;100862.13;4955943;28;45709;-79
2022/10/25 11:11:13;;;;;;;;;3.75;3.75;;;;;18.45;63.38;100873.69;4954732;28;45863;-83
2022/10/25 11:13:39;;;;;;;;;3.00;2.75;;;;;18.49;63.50;100882.19;4954895;28;46661;-81
2022/10/25 11:16:20;;;;;;;;;2.50;1.75;;;;;18.52;63.66;100882.69;4955038;28;45667;-76
2022/10/25 11:18:59;;;;;;;;;3.50;2.00;;;;;18.55;63.48;100868.34;4954986;28;45739;-81
2022/10/25 11:22:09;;;;;;;;;3.25;3.00;;;;;18.59;63.23;100877.66;4954677;28;45656;-78
2022/10/25 11:27:57;;;;;;;;;4.25;3.25;;;;;18.66;63.39;100868.09;4956161;28;45601;-86
2022/10/25 11:30:30;;;;;;;;;4.25;4.00;;;;;18.69;63.38;100865.13;4955682;28;45558;-81
2022/10/25 11:33:15;;;;;;;;;4.75;3.25;;;;;18.72;63.06;100864.81;4954769;28;45994;-81
2022/10/25 11:35:49;;;;;;;;;2.50;2.00;;;;;18.76;62.78;100872.31;4954591;28;46856;-82
2022/10/25 11:38:27;;;;;;;;;3.00;3.00;;;;;18.81;62.90;100867.38;4954392;28;46998;-82
2022/10/25 11:44:36;;;;;;;;;6.50;3.75;;;;;18.90;62.56;100857.63;4955270;28;45613;-82
2022/10/25 11:47:24;;;;;;;;;5.00;2.50;;;;;18.86;62.73;100837.69;4955203;28;46597;-81
2022/10/25 11:50:01;;;;;;;;;3.00;2.25;;;;;18.96;62.66;100851.69;4956265;28;46013;-85
2022/10/25 11:53:04;;;;;;;;;3.25;3.25;;;;;19.00;62.49;100855.69;4957646;28;45585;-79
2022/10/25 11:59:12;;;;;;;;;5.25;3.00;;;;;19.00;62.34;100844.25;4969510;28;45324;-88
2022/10/25 12:02:06;;;;;;;;;4.00;2.75;;;;;19.08;62.26;100836.31;4968205;28;45993;-89
2022/10/25 12:04:37;;;;;;;;;2.75;2.75;;;;;19.11;61.91;100841.34;4884968;29;45734;-90
2022/10/25 12:07:26;;;;;;;;;4.00;3.00;;;;;19.12;62.04;100840.31;4888853;29;45656;-85
2022/10/25 12:16:23;;;;;;;;;0.00;0.00;;;;;19.20;61.90;100822.63;4888112;29;45622;-89
2022/10/25 12:19:12;;;;;;;;;4.00;3.00;;;;;19.25;61.96;100827.44;4888803;29;45710;-83
2022/10/25 12:21:48;;;;;;;;;2.50;2.50;;;;;19.28;61.65;100825.28;4883527;29;47789;-86
2022/10/25 12:24:27;;;;;;;;;2.50;2.50;;;;;19.23;61.76;100810.81;4887449;29;47407;-82
2022/10/25 12:30:16;;;;;;;;;3.00;3.00;;;;;19.38;61.45;100816.38;4884409;29;45590;-77
2022/10/25 12:32:49;;;;;;;;;3.50;2.25;;;;;19.43;61.49;100814.06;4882630;29;46467;-79
2022/10/25 12:35:35;;;;;;;;;3.50;2.00;;;;;19.38;61.68;100784.50;4880746;29;46942;-78
2022/10/25 12:38:17;;;;;;;;;2.25;2.00;;;;;19.46;61.20;100789.84;4881788;29;45583;-90
2022/10/25 12:45:08;;;;;;;;;1.50;1.25;;;;;19.62;61.17;100796.03;4959186;28;46010;-84
2022/10/25 12:47:54;;;;;;;;;3.00;3.00;;;;;19.66;61.01;100784.06;4962316;28;45985;-83
2022/10/25 12:50:28;;;;;;;;;3.00;3.00;;;;;19.61;60.99;100765.13;4962167;28;45529;-84
2022/10/25 12:53:19;;;;;;;;;2.00;2.00;;;;;19.75;60.83;100782.28;4961542;28;45657;-79
2022/10/25 12:56:07;;;;;;;;;4.00;3.00;;;;;19.79;60.69;100772.13;4958311;28;46328;-83
2022/10/25 12:58:58;;;;;;;;;3.00;2.00;;;;;19.83;60.70;100771.63;4958575;28;45522;-80
2022/10/25 13:01:37;;;;;;;;;3.00;2.00;;;;;19.88;60.73;100771.13;4959007;28;45616;-83
2022/10/25 13:04:14;;;;;;;;;4.00;3.00;;;;;19.89;60.61;100768.31;4960049;28;45851;-86
2022/10/25 13:06:46;;;;;;;;;3.50;3.00;;;;;19.87;60.49;100761.50;4959164;28;45529;-85
2022/10/25 13:09:15;;;;;;;;;3.25;2.00;;;;;19.90;60.79;100759.34;4959361;28;46326;-79
2022/10/25 13:11:47;;;;;;;;;6.25;2.75;;;;;19.91;60.70;100757.53;4957176;28;45630;-76
2022/10/25 13:14:44;;;;;;;;;2.75;2.25;;;;;20.00;60.68;100754.69;4958293;28;45680;-82
2022/10/25 13:17:15;;;;;;;;;2.00;1.75;;;;;20.06;60.40;100754.03;4935725;28;45713;-78
2022/10/25 13:19:48;;;;;;;;;4.50;3.50;;;;;20.08;60.72;100752.03;4936043;28;46147;-77